Last 7 Days

Kelseyville Remote

Hourly Data | America/Los_Angeles
as of 9/4/26 3:53 AM PDT
Date & Time Temp (°F) RH (%) Dew Pt (°F) Wet Bulb (°F) BatVolt (V) Latest Rain (In) Max Rain Intensity (In/Hr) Precip 24Hr (In) Daily Rain (In) Daily Min Temp (°F) Daily Max Temp (°F)
9/4/26 - 0300 48.0 88 44.8 46.8 12.9 0.00 - - 0.00 47.4 50.1
9/4/26 - 0200 49.4 88 46.0 48.2 12.9 0.00 - - 0.00 48.8 50.1
9/4/26 - 0100 50.9 86 46.8 49.4 12.9 0.00 - - 0.00 49.8 70.1
9/4/26 - 0000 53.2 84 48.3 51.2 13.0 0.00 - - 0.00 51.2 70.1
9/3/26 - 2300 54.5 82 49.3 52.4 13.0 0.00 - - 0.00 53.7 70.1
9/3/26 - 2200 58.1 72 49.2 53.8 13.0 0.00 - - 0.00 55.9 70.1
9/3/26 - 2100 58.8 74 50.6 54.9 13.0 0.00 - - 0.00 57.8 70.1
9/3/26 - 2000 58.2 80 52.1 55.6 13.0 0.00 - - 0.00 57.8 70.1
9/3/26 - 1900 60.9 73 52.1 56.6 13.0 0.00 - - 0.00 59.4 70.1
9/3/26 - 1800 61.2 74 52.7 57.1 13.2 0.00 - - 0.00 59.4 70.1
9/3/26 - 1700 61.9 70 52.0 56.9 13.4 0.00 - - 0.00 59.4 70.1
9/3/26 - 1600 66.6 51 47.7 56.0 13.7 0.00 - - 0.00 59.4 70.1
9/3/26 - 1500 68.8 45 46.6 56.1 13.6 0.00 - - 0.00 59.4 70.1
9/3/26 - 1400 67.9 47 47.1 56.0 13.7 0.00 - - 0.00 59.4 68.8
9/3/26 - 1300 67.4 51 48.6 56.6 13.7 0.00 - - 0.00 59.4 68.4
9/3/26 - 1200 66.4 56 50.1 57.2 13.7 0.00 - - 0.00 59.4 67.0
9/3/26 - 1100 65.0 65 52.7 58.4 13.7 0.00 - - 0.00 59.4 66.0
9/3/26 - 1000 63.1 75 55.1 59.3 13.7 0.00 - - 0.00 59.4 63.5
9/3/26 - 0900 61.7 79 55.2 58.9 13.4 0.00 - - 0.00 59.4 62.3
9/3/26 - 0800 61.5 76 53.9 57.9 12.9 0.00 - 0.01 0.00 59.4 61.7
9/3/26 - 0700 61.0 75 53.1 57.3 12.7 0.00 - 0.01 0.00 59.4 61.4
9/3/26 - 0600 60.6 75 52.7 56.8 12.8 0.00 - 0.01 0.00 59.4 60.8
9/3/26 - 0500 60.4 74 52.1 56.4 12.8 0.00 - 0.01 0.00 59.4 60.7
9/3/26 - 0400 60.1 72 51.2 55.7 12.9 0.00 - 0.01 0.00 59.4 60.3
9/3/26 - 0300 60.0 70 50.4 55.2 12.9 0.00 - 0.01 0.00 59.4 60.2
9/3/26 - 0200 59.6 67 48.8 54.1 12.9 0.00 - 0.01 0.00 59.4 59.8
9/3/26 - 0100 59.2 66 47.8 53.4 13.0 0.00 - 0.01 0.01 54.5 72.9
9/3/26 - 0000 59.3 64 47.2 53.1 13.0 0.00 - 0.01 0.01 54.5 72.9
9/2/26 - 2300 59.5 61 46.3 52.7 13.0 0.00 - 0.01 0.01 54.5 72.9
9/2/26 - 2200 59.8 59 45.5 52.4 13.0 0.00 - 0.01 0.01 54.5 72.9
9/2/26 - 2100 61.4 55 45.1 52.7 13.0 0.00 - 0.01 0.01 54.5 72.9
9/2/26 - 2000 64.2 50 45.0 53.7 13.0 0.00 - 0.01 0.01 54.5 72.9
9/2/26 - 1900 67.2 45 45.1 54.7 13.7 0.00 - 0.01 0.01 54.5 72.9
9/2/26 - 1800 70.2 38 43.7 55.0 13.6 0.00 - 0.01 0.01 54.5 72.9
9/2/26 - 1700 71.0 42 46.4 56.6 13.6 0.00 - 0.01 0.01 54.5 72.9
9/2/26 - 1600 71.5 42 47.2 57.1 13.6 0.00 - 0.01 0.01 54.5 72.9
9/2/26 - 1500 71.2 43 47.4 57.1 13.6 0.00 - 0.01 0.01 54.5 72.2
9/2/26 - 1400 69.8 47 48.5 57.3 13.6 0.00 - 0.01 0.01 54.5 71.8
9/2/26 - 1300 68.2 50 48.7 57.0 13.6 0.00 - 0.01 0.01 54.5 69.4
9/2/26 - 1200 66.1 57 50.2 57.2 13.7 0.00 - 0.01 0.01 54.5 68.8
9/2/26 - 1100 63.0 72 54.0 58.5 13.7 0.00 - 0.01 0.01 54.5 63.8
9/2/26 - 1000 59.6 85 54.9 57.9 13.8 0.00 - 0.01 0.01 54.5 61.8
9/2/26 - 0900 56.4 88 53.0 55.5 13.8 0.01 0.01 0.01 0.01 54.5 57.6
9/2/26 - 0800 55.4 89 52.2 54.5 13.0 0.00 - - 0.00 54.5 57.6
9/2/26 - 0700 55.2 88 51.6 54.0 12.7 0.00 - - 0.00 54.5 57.6
9/2/26 - 0600 56.5 79 50.0 53.6 12.8 0.00 - - 0.00 54.5 57.6
9/2/26 - 0500 57.0 74 48.9 53.2 12.9 0.00 - - 0.00 54.5 57.5
9/2/26 - 0400 56.7 75 48.8 53.0 12.9 0.00 - - 0.00 54.5 57.2
9/2/26 - 0300 57.1 72 48.1 52.8 12.9 0.00 - - 0.00 54.5 57.2
9/2/26 - 0200 55.9 76 48.5 52.5 12.9 0.00 - - 0.00 54.5 57.0
9/2/26 - 0100 54.1 79 47.9 51.4 12.9 0.00 - - 0.00 48.2 72.6
9/2/26 - 0000 53.0 80 47.2 50.5 13.0 0.00 - - 0.00 48.2 72.6
9/1/26 - 2300 55.2 75 47.5 51.6 13.0 0.00 - - 0.00 48.2 72.6
9/1/26 - 2200 57.7 72 48.7 53.4 13.0 0.00 - - 0.00 48.2 72.6
9/1/26 - 2100 60.0 65 48.0 53.8 13.0 0.00 - - 0.00 48.2 72.6
9/1/26 - 2000 62.4 53 45.2 53.2 13.1 0.00 - - 0.00 48.2 72.6
9/1/26 - 1900 65.4 48 45.2 54.3 13.8 0.00 - - 0.00 48.2 72.6
9/1/26 - 1800 68.6 42 44.3 54.8 13.6 0.00 - - 0.00 48.2 72.6
9/1/26 - 1700 69.2 42 44.9 55.3 13.6 0.00 - - 0.00 48.2 72.6
9/1/26 - 1600 69.6 42 45.5 55.7 13.6 0.00 - - 0.00 48.2 72.6
9/1/26 - 1500 70.7 42 46.3 56.4 13.6 0.00 - - 0.00 48.2 72.6
9/1/26 - 1400 68.4 44 45.6 55.4 13.6 0.00 - - 0.00 48.2 70.3
9/1/26 - 1300 66.1 53 48.6 56.2 13.7 0.00 - - 0.00 48.2 67.2
9/1/26 - 1200 64.5 54 47.7 55.2 13.7 0.00 - - 0.00 48.2 67.1
9/1/26 - 1100 62.2 59 47.8 54.5 13.7 0.00 - - 0.00 48.2 63.5
9/1/26 - 1000 60.0 63 47.3 53.4 13.8 0.00 - - 0.00 48.2 61.3
9/1/26 - 0900 58.6 64 46.5 52.5 13.8 0.00 - - 0.00 48.2 59.1
9/1/26 - 0800 57.7 69 47.7 52.8 13.0 0.00 - - 0.00 48.2 58.2
9/1/26 - 0700 57.4 71 48.1 52.9 12.8 0.00 - - 0.00 48.2 57.6
9/1/26 - 0600 57.3 72 48.5 53.0 12.8 0.00 - - 0.00 48.2 57.6
9/1/26 - 0500 56.2 77 49.0 52.9 12.8 0.00 - - 0.00 48.2 56.8
9/1/26 - 0400 53.3 78 46.8 50.4 12.8 0.00 - - 0.00 48.2 55.1
9/1/26 - 0300 50.1 83 45.2 48.1 12.9 0.00 - - 0.00 48.2 52.1
9/1/26 - 0200 50.7 80 44.9 48.2 12.9 0.00 - - 0.00 48.2 52.1
9/1/26 - 0100 51.7 78 45.1 48.8 12.9 0.00 - - 0.00 47.6 84.3
9/1/26 - 0000 53.6 75 45.9 50.1 12.9 0.00 - - 0.00 47.6 84.3
8/31/26 - 2300 56.8 70 47.0 52.0 13.0 0.00 - - 0.00 47.6 84.3
8/31/26 - 2200 59.8 64 47.6 53.5 13.0 0.00 - - 0.00 47.6 84.3
8/31/26 - 2100 63.7 57 48.4 55.3 13.0 0.00 - - 0.00 47.6 84.3
8/31/26 - 2000 70.0 47 49.0 57.6 13.1 0.00 - - 0.00 47.6 84.3
8/31/26 - 1900 75.4 41 49.9 59.6 13.6 0.00 - - 0.00 47.6 84.3
8/31/26 - 1800 78.6 37 50.0 60.3 13.5 0.00 - - 0.00 47.6 84.3
8/31/26 - 1700 80.4 33 48.4 59.9 13.5 0.00 - - 0.00 47.6 84.3
8/31/26 - 1600 81.3 29 46.2 59.1 13.5 0.00 - - 0.00 47.6 84.3
8/31/26 - 1500 82.2 28 46.0 59.2 13.5 0.00 - - 0.00 47.6 84.3
8/31/26 - 1400 82.7 26 44.5 58.6 13.4 0.00 - - 0.00 47.6 84.3
8/31/26 - 1300 80.8 29 45.8 58.8 13.5 0.00 - - 0.00 47.6 83.3
8/31/26 - 1200 77.6 32 45.6 57.9 13.5 0.00 - - 0.00 47.6 80.4
8/31/26 - 1100 74.1 38 46.6 57.5 13.6 0.00 - - 0.00 47.6 75.4
8/31/26 - 1000 70.8 39 44.9 55.8 13.6 0.00 - - 0.00 47.6 73.3
8/31/26 - 0900 65.1 44 42.8 52.9 13.7 0.00 - - 0.00 47.6 68.6
8/31/26 - 0800 53.9 62 41.1 47.7 14.0 0.00 - - 0.00 47.6 61.0
8/31/26 - 0700 48.2 73 40.0 44.6 12.8 0.00 - - 0.00 47.6 57.6
8/31/26 - 0600 48.7 75 41.1 45.3 12.7 0.00 - - 0.00 48.3 57.6
8/31/26 - 0500 49.9 71 40.8 45.8 12.8 0.00 - - 0.00 48.9 57.6
8/31/26 - 0400 51.8 72 43.0 47.7 12.8 0.00 - - 0.00 50.7 57.6
8/31/26 - 0300 52.2 72 43.6 48.2 12.8 0.00 - - 0.00 51.2 57.6
8/31/26 - 0200 55.1 66 43.8 49.6 12.8 0.00 - - 0.00 53.2 57.6
8/31/26 - 0100 57.5 60 43.7 50.5 12.8 0.00 - - 0.00 46.5 91.5
8/31/26 - 0000 59.8 59 45.5 52.4 12.9 0.00 - - 0.00 46.5 91.5
8/30/26 - 2300 61.9 55 45.6 53.2 13.0 0.00 - - 0.00 46.5 91.5
8/30/26 - 2200 66.4 49 46.8 55.3 13.0 0.00 - - 0.00 46.5 91.5
8/30/26 - 2100 72.5 40 46.8 57.2 13.0 0.00 - - 0.00 46.5 91.5
8/30/26 - 2000 79.8 30 45.5 58.4 13.1 0.00 - - 0.00 46.5 91.5
8/30/26 - 1900 85.3 25 45.9 59.7 13.2 0.00 - - 0.00 46.5 91.5
8/30/26 - 1800 89.2 19 41.6 58.8 13.4 0.00 - - 0.00 46.5 91.5
8/30/26 - 1700 90.6 15 35.9 57.2 13.3 0.00 - - 0.00 46.5 91.5
8/30/26 - 1600 89.1 14 33.9 56.3 13.4 0.00 - - 0.00 46.5 91.4
8/30/26 - 1500 88.0 18 39.7 57.9 13.4 0.00 - - 0.00 46.5 89.3
8/30/26 - 1400 85.9 20 40.2 57.7 13.4 0.00 - - 0.00 46.5 87.9
8/30/26 - 1300 81.3 30 47.0 59.4 13.5 0.00 - - 0.00 46.5 84.7
8/30/26 - 1200 76.4 38 49.1 59.4 13.5 0.00 - - 0.00 46.5 78.8
8/30/26 - 1100 72.6 45 49.8 58.8 13.6 0.00 - - 0.00 46.5 74.4
8/30/26 - 1000 68.7 49 48.9 57.2 13.7 0.00 - - 0.00 46.5 71.4
8/30/26 - 0900 63.2 50 44.3 53.0 13.8 0.00 - - 0.00 46.5 67.5
8/30/26 - 0800 52.8 63 40.6 47.0 13.9 0.00 - - 0.00 46.5 57.7
8/30/26 - 0700 47.3 73 39.3 43.8 12.8 0.00 - - 0.00 46.5 54.5
8/30/26 - 0600 47.4 75 39.9 44.1 12.8 0.00 - - 0.00 46.5 54.5
8/30/26 - 0500 48.3 71 39.5 44.4 12.8 0.00 - - 0.00 47.8 54.5
8/30/26 - 0400 49.8 68 39.9 45.3 12.8 0.00 - - 0.00 48.7 54.5
8/30/26 - 0300 51.2 67 40.5 46.2 12.8 0.00 - - 0.00 50.4 54.5
8/30/26 - 0200 53.1 60 39.8 46.8 12.9 0.00 - - 0.00 52.0 54.5
8/30/26 - 0100 55.6 58 40.8 48.4 12.8 0.00 - - 0.00 43.2 87.8
8/30/26 - 0000 57.3 56 41.6 49.5 12.9 0.00 - - 0.00 43.2 87.8
8/29/26 - 2300 61.0 50 42.3 51.2 13.0 0.00 - - 0.00 43.2 87.8
8/29/26 - 2200 62.2 49 43.1 52.0 13.0 0.00 - - 0.00 43.2 87.8
8/29/26 - 2100 67.1 41 42.7 53.6 13.0 0.00 - - 0.00 43.2 87.8
8/29/26 - 2000 74.6 31 42.2 55.6 13.1 0.00 - - 0.00 43.2 87.8
8/29/26 - 1900 79.8 26 41.6 56.7 13.5 0.00 - - 0.00 43.2 87.8
8/29/26 - 1800 83.0 22 40.7 57.1 13.4 0.00 - - 0.00 43.2 87.8
8/29/26 - 1700 85.1 22 42.2 58.2 13.4 0.00 - - 0.00 43.2 87.8
8/29/26 - 1600 86.1 21 41.7 58.2 13.4 0.00 - - 0.00 43.2 87.8
8/29/26 - 1500 86.1 20 40.7 57.8 13.4 0.00 - - 0.00 43.2 87.8
8/29/26 - 1400 83.4 22 40.2 57.0 13.5 0.00 - - 0.00 43.2 85.3
8/29/26 - 1300 80.4 23 39.5 56.1 13.5 0.00 - - 0.00 43.2 82.7
8/29/26 - 1200 76.4 33 44.8 57.2 13.5 0.00 - - 0.00 43.2 78.4
8/29/26 - 1100 72.9 33 42.1 55.2 13.6 0.00 - - 0.00 43.2 75.0
8/29/26 - 1000 69.0 33 38.4 52.4 13.6 0.00 - - 0.00 43.2 71.9
8/29/26 - 0900 61.3 37 34.6 48.0 13.8 0.00 - - 0.00 43.2 65.6
8/29/26 - 0800 49.6 54 33.4 42.4 14.0 0.00 - - 0.00 43.2 55.2
8/29/26 - 0700 43.7 66 33.1 39.3 12.8 0.00 - - 0.00 43.2 50.3
8/29/26 - 0600 43.9 65 32.8 39.2 12.8 0.00 - - 0.00 43.2 50.3
8/29/26 - 0500 44.2 65 33.1 39.5 12.8 0.00 - - 0.00 43.3 50.3
8/29/26 - 0400 45.8 64 34.4 40.9 12.8 0.00 - - 0.00 44.2 50.3
8/29/26 - 0300 47.8 60 34.6 42.0 12.8 0.00 - - 0.00 46.4 50.3
8/29/26 - 0200 49.0 58 34.9 42.7 12.9 0.00 - - 0.00 47.0 50.3
8/29/26 - 0100 51.7 53 35.3 44.2 12.9 0.00 - - 0.00 49.7 84.2
8/29/26 - 0000 53.3 59 39.2 46.6 12.9 0.00 - - 0.00 51.6 84.2
8/28/26 - 2300 57.9 48 38.2 48.1 12.9 0.00 - - 0.00 55.5 84.2
8/28/26 - 2200 62.6 43 39.8 50.7 13.0 0.00 - - 0.00 56.2 84.2
8/28/26 - 2100 66.6 38 40.4 52.4 13.0 0.00 - - 0.00 56.2 84.2
8/28/26 - 2000 77.0 24 37.1 54.4 13.1 0.00 - - 0.00 56.2 84.2
8/28/26 - 1900 80.2 21 37.0 55.1 13.4 0.00 - - 0.00 56.2 84.2
8/28/26 - 1800 80.4 20 36.1 54.9 13.5 0.00 - - 0.00 56.2 84.2
8/28/26 - 1700 82.1 17 33.2 54.4 13.5 0.00 - - 0.00 56.2 84.2
8/28/26 - 1600 83.5 15 31.6 54.3 13.5 0.00 - - 0.00 56.2 84.2
8/28/26 - 1500 83.0 14 29.2 53.6 13.5 0.00 - - 0.00 56.2 83.8
8/28/26 - 1400 81.3 10 19.1 50.9 13.5 0.00 - - 0.00 56.2 83.2
8/28/26 - 1300 79.4 14 25.0 51.8 13.5 0.00 - - 0.00 56.2 81.6
8/28/26 - 1200 80.1 22 37.8 55.4 13.5 0.00 - - 0.00 56.2 81.6
8/28/26 - 1100 76.8 26 39.4 55.1 13.5 0.00 - - 0.00 56.2 78.8
8/28/26 - 1000 72.0 26 35.4 52.2 13.7 0.00 - - 0.00 56.2 75.7
8/28/26 - 0900 64.1 38 37.8 50.4 13.8 0.00 - - 0.00 56.2 68.0
8/28/26 - 0800 58.1 49 39.1 48.6 13.2 0.00 - - 0.00 56.2 63.5
8/28/26 - 0700 57.0 53 39.8 48.4 12.8 0.00 - - 0.00 56.2 63.5
8/28/26 - 0600 56.6 53 39.7 48.3 12.8 0.00 - - 0.00 56.2 63.5
8/28/26 - 0500 57.4 52 39.9 48.7 12.8 0.00 - - 0.00 56.6 63.5
8/28/26 - 0400 58.8 47 38.8 48.8 12.8 0.00 - - 0.00 57.7 63.5
Max 90.6 89 55.2 60.3 14.0 0.01 - 0.01 0.01 59.4 91.5
Avg 64.2 53 44.3 53.2 13.2 0.00 - 0.01 - - -
Min 43.7 10 19.1 39.2 12.7 0.00 - 0.01 0.00 43.2 50.1
Total - - - - - 0.01 - - - - -